sensor_id;sensor_type;location;lat;lon;timestamp;P1;durP1;ratioP1;P2;durP2;ratioP2
28007;SDS011;15333;50.010;20.020;2023-04-06T00:00:09;27.98;;;15.45;;
28007;SDS011;15333;50.010;20.020;2023-04-06T00:03:32;36.47;;;16.13;;
28007;SDS011;15333;50.010;20.020;2023-04-06T00:06:32;30.92;;;16.48;;
28007;SDS011;15333;50.010;20.020;2023-04-06T00:09:34;31.77;;;16.48;;
28007;SDS011;15333;50.010;20.020;2023-04-06T00:12:34;31.08;;;16.60;;
28007;SDS011;15333;50.010;20.020;2023-04-06T00:15:35;32.08;;;16.10;;
28007;SDS011;15333;50.010;20.020;2023-04-06T00:18:36;35.25;;;17.15;;
28007;SDS011;15333;50.010;20.020;2023-04-06T00:21:37;37.92;;;17.15;;
28007;SDS011;15333;50.010;20.020;2023-04-06T00:24:38;29.58;;;17.13;;
28007;SDS011;15333;50.010;20.020;2023-04-06T00:27:39;32.33;;;16.02;;
28007;SDS011;15333;50.010;20.020;2023-04-06T00:30:40;32.97;;;16.20;;
28007;SDS011;15333;50.010;20.020;2023-04-06T00:33:42;33.35;;;16.27;;
28007;SDS011;15333;50.010;20.020;2023-04-06T00:36:42;37.35;;;16.80;;
28007;SDS011;15333;50.010;20.020;2023-04-06T00:39:44;35.22;;;17.13;;
28007;SDS011;15333;50.010;20.020;2023-04-06T00:42:45;33.95;;;16.80;;
28007;SDS011;15333;50.010;20.020;2023-04-06T00:45:46;41.42;;;19.92;;
28007;SDS011;15333;50.010;20.020;2023-04-06T00:48:46;38.50;;;17.73;;
28007;SDS011;15333;50.010;20.020;2023-04-06T00:51:47;43.60;;;20.60;;
28007;SDS011;15333;50.010;20.020;2023-04-06T00:54:49;54.28;;;24.73;;
28007;SDS011;15333;50.010;20.020;2023-04-06T00:57:53;47.63;;;24.17;;
28007;SDS011;15333;50.010;20.020;2023-04-06T01:00:55;44.63;;;21.48;;
28007;SDS011;15333;50.010;20.020;2023-04-06T01:03:57;52.40;;;23.20;;
28007;SDS011;15333;50.010;20.020;2023-04-06T01:06:58;41.92;;;21.73;;
28007;SDS011;15333;50.010;20.020;2023-04-06T01:10:07;44.47;;;22.50;;
28007;SDS011;15333;50.010;20.020;2023-04-06T01:13:09;40.35;;;19.92;;
28007;SDS011;15333;50.010;20.020;2023-04-06T01:16:31;47.95;;;23.10;;
28007;SDS011;15333;50.010;20.020;2023-04-06T01:19:49;48.60;;;25.08;;
28007;SDS011;15333;50.010;20.020;2023-04-06T01:22:59;46.25;;;23.67;;
28007;SDS011;15333;50.010;20.020;2023-04-06T01:26:00;50.95;;;25.38;;
28007;SDS011;15333;50.010;20.020;2023-04-06T01:29:03;50.25;;;25.63;;
28007;SDS011;15333;50.010;20.020;2023-04-06T01:32:04;45.05;;;21.85;;
28007;SDS011;15333;50.010;20.020;2023-04-06T01:35:10;48.95;;;23.25;;
28007;SDS011;15333;50.010;20.020;2023-04-06T01:38:18;46.67;;;21.50;;
28007;SDS011;15333;50.010;20.020;2023-04-06T01:41:22;40.15;;;19.85;;
28007;SDS011;15333;50.010;20.020;2023-04-06T01:44:26;46.03;;;22.77;;
28007;SDS011;15333;50.010;20.020;2023-04-06T01:47:38;56.67;;;26.70;;
28007;SDS011;15333;50.010;20.020;2023-04-06T01:50:40;45.00;;;22.83;;
28007;SDS011;15333;50.010;20.020;2023-04-06T01:53:42;42.75;;;22.75;;
28007;SDS011;15333;50.010;20.020;2023-04-06T01:56:43;46.95;;;22.85;;
28007;SDS011;15333;50.010;20.020;2023-04-06T01:59:59;42.25;;;21.92;;
28007;SDS011;15333;50.010;20.020;2023-04-06T02:03:13;47.13;;;23.02;;
28007;SDS011;15333;50.010;20.020;2023-04-06T02:06:16;42.97;;;22.48;;
28007;SDS011;15333;50.010;20.020;2023-04-06T02:09:17;43.08;;;21.63;;
28007;SDS011;15333;50.010;20.020;2023-04-06T02:12:19;44.78;;;21.30;;
28007;SDS011;15333;50.010;20.020;2023-04-06T02:15:19;40.88;;;21.27;;
28007;SDS011;15333;50.010;20.020;2023-04-06T02:18:21;48.65;;;21.15;;
28007;SDS011;15333;50.010;20.020;2023-04-06T02:21:22;41.03;;;22.02;;
28007;SDS011;15333;50.010;20.020;2023-04-06T02:24:23;44.90;;;21.92;;
28007;SDS011;15333;50.010;20.020;2023-04-06T02:27:24;39.63;;;21.38;;
28007;SDS011;15333;50.010;20.020;2023-04-06T02:30:26;39.25;;;20.52;;
28007;SDS011;15333;50.010;20.020;2023-04-06T02:33:26;47.30;;;22.75;;
28007;SDS011;15333;50.010;20.020;2023-04-06T02:36:28;40.33;;;21.63;;
28007;SDS011;15333;50.010;20.020;2023-04-06T02:39:28;48.60;;;22.65;;
28007;SDS011;15333;50.010;20.020;2023-04-06T02:42:30;43.13;;;21.88;;
28007;SDS011;15333;50.010;20.020;2023-04-06T02:45:31;38.35;;;21.85;;
28007;SDS011;15333;50.010;20.020;2023-04-06T02:48:34;40.25;;;21.98;;
28007;SDS011;15333;50.010;20.020;2023-04-06T02:51:37;39.00;;;21.80;;
28007;SDS011;15333;50.010;20.020;2023-04-06T02:55:04;41.95;;;22.25;;
28007;SDS011;15333;50.010;20.020;2023-04-06T02:58:08;41.95;;;22.38;;
28007;SDS011;15333;50.010;20.020;2023-04-06T03:01:19;40.30;;;21.73;;
28007;SDS011;15333;50.010;20.020;2023-04-06T03:04:23;42.97;;;22.70;;
28007;SDS011;15333;50.010;20.020;2023-04-06T03:07:27;42.53;;;21.45;;
28007;SDS011;15333;50.010;20.020;2023-04-06T03:10:29;47.72;;;23.55;;
28007;SDS011;15333;50.010;20.020;2023-04-06T03:13:30;45.50;;;22.58;;
28007;SDS011;15333;50.010;20.020;2023-04-06T03:16:32;42.65;;;23.00;;
28007;SDS011;15333;50.010;20.020;2023-04-06T03:19:35;46.10;;;23.10;;
28007;SDS011;15333;50.010;20.020;2023-04-06T03:22:36;43.85;;;23.58;;
28007;SDS011;15333;50.010;20.020;2023-04-06T03:25:39;47.05;;;23.52;;
28007;SDS011;15333;50.010;20.020;2023-04-06T03:28:46;46.28;;;22.55;;
28007;SDS011;15333;50.010;20.020;2023-04-06T03:31:47;40.83;;;22.55;;
28007;SDS011;15333;50.010;20.020;2023-04-06T03:35:05;45.90;;;22.73;;
28007;SDS011;15333;50.010;20.020;2023-04-06T03:38:07;44.67;;;22.38;;
28007;SDS011;15333;50.010;20.020;2023-04-06T03:41:07;43.28;;;22.55;;
28007;SDS011;15333;50.010;20.020;2023-04-06T03:44:09;45.22;;;21.48;;
28007;SDS011;15333;50.010;20.020;2023-04-06T03:47:11;45.40;;;21.75;;
28007;SDS011;15333;50.010;20.020;2023-04-06T03:50:12;47.50;;;23.45;;
28007;SDS011;15333;50.010;20.020;2023-04-06T03:53:13;45.50;;;22.38;;
28007;SDS011;15333;50.010;20.020;2023-04-06T03:56:14;55.75;;;25.08;;
28007;SDS011;15333;50.010;20.020;2023-04-06T03:59:15;46.53;;;23.35;;
28007;SDS011;15333;50.010;20.020;2023-04-06T04:02:16;56.58;;;25.48;;
28007;SDS011;15333;50.010;20.020;2023-04-06T04:05:17;58.10;;;27.27;;
28007;SDS011;15333;50.010;20.020;2023-04-06T04:08:18;59.35;;;25.05;;
28007;SDS011;15333;50.010;20.020;2023-04-06T04:11:19;60.80;;;27.58;;
28007;SDS011;15333;50.010;20.020;2023-04-06T04:14:27;60.95;;;26.42;;
28007;SDS011;15333;50.010;20.020;2023-04-06T04:17:28;59.35;;;26.90;;
28007;SDS011;15333;50.010;20.020;2023-04-06T04:20:29;56.67;;;25.90;;
28007;SDS011;15333;50.010;20.020;2023-04-06T04:23:30;55.92;;;24.95;;
28007;SDS011;15333;50.010;20.020;2023-04-06T04:26:31;55.22;;;24.77;;
28007;SDS011;15333;50.010;20.020;2023-04-06T04:29:32;62.00;;;26.63;;
28007;SDS011;15333;50.010;20.020;2023-04-06T04:32:38;45.42;;;24.00;;
28007;SDS011;15333;50.010;20.020;2023-04-06T04:35:41;54.40;;;24.17;;
28007;SDS011;15333;50.010;20.020;2023-04-06T04:38:45;48.70;;;24.58;;
28007;SDS011;15333;50.010;20.020;2023-04-06T04:41:47;54.40;;;24.33;;
28007;SDS011;15333;50.010;20.020;2023-04-06T04:44:48;49.00;;;24.95;;
28007;SDS011;15333;50.010;20.020;2023-04-06T04:47:55;53.53;;;25.40;;
28007;SDS011;15333;50.010;20.020;2023-04-06T04:51:00;46.85;;;23.45;;
28007;SDS011;15333;50.010;20.020;2023-04-06T04:54:09;51.37;;;24.40;;
28007;SDS011;15333;50.010;20.020;2023-04-06T04:57:11;50.55;;;23.90;;
28007;SDS011;15333;50.010;20.020;2023-04-06T05:00:17;48.83;;;24.27;;
28007;SDS011;15333;50.010;20.020;2023-04-06T05:03:23;50.83;;;23.10;;
28007;SDS011;15333;50.010;20.020;2023-04-06T05:06:35;44.58;;;22.58;;
28007;SDS011;15333;50.010;20.020;2023-04-06T05:09:36;44.58;;;22.30;;
28007;SDS011;15333;50.010;20.020;2023-04-06T05:12:37;45.72;;;21.95;;
28007;SDS011;15333;50.010;20.020;2023-04-06T05:15:43;47.42;;;22.38;;
28007;SDS011;15333;50.010;20.020;2023-04-06T05:19:13;46.70;;;22.58;;
28007;SDS011;15333;50.010;20.020;2023-04-06T05:22:18;46.90;;;22.30;;
28007;SDS011;15333;50.010;20.020;2023-04-06T05:25:25;45.03;;;22.40;;
28007;SDS011;15333;50.010;20.020;2023-04-06T05:28:29;46.28;;;23.30;;
28007;SDS011;15333;50.010;20.020;2023-04-06T05:31:30;43.42;;;21.10;;
28007;SDS011;15333;50.010;20.020;2023-04-06T05:34:33;52.60;;;22.88;;
28007;SDS011;15333;50.010;20.020;2023-04-06T05:37:38;48.40;;;21.90;;
28007;SDS011;15333;50.010;20.020;2023-04-06T05:40:40;41.38;;;20.90;;
28007;SDS011;15333;50.010;20.020;2023-04-06T05:43:45;43.05;;;20.63;;
28007;SDS011;15333;50.010;20.020;2023-04-06T05:46:46;44.45;;;21.13;;
28007;SDS011;15333;50.010;20.020;2023-04-06T05:49:50;49.17;;;22.98;;
28007;SDS011;15333;50.010;20.020;2023-04-06T05:52:59;42.17;;;19.45;;
28007;SDS011;15333;50.010;20.020;2023-04-06T05:56:06;45.28;;;19.48;;
28007;SDS011;15333;50.010;20.020;2023-04-06T05:59:07;51.10;;;20.52;;
28007;SDS011;15333;50.010;20.020;2023-04-06T06:02:08;38.92;;;18.60;;
28007;SDS011;15333;50.010;20.020;2023-04-06T06:05:14;46.08;;;19.02;;
28007;SDS011;15333;50.010;20.020;2023-04-06T06:08:16;41.10;;;18.95;;
28007;SDS011;15333;50.010;20.020;2023-04-06T06:11:18;35.75;;;18.27;;
28007;SDS011;15333;50.010;20.020;2023-04-06T06:14:18;36.03;;;17.83;;
28007;SDS011;15333;50.010;20.020;2023-04-06T06:17:20;41.20;;;17.73;;
28007;SDS011;15333;50.010;20.020;2023-04-06T06:20:22;35.65;;;16.88;;
28007;SDS011;15333;50.010;20.020;2023-04-06T06:23:23;38.75;;;15.82;;
28007;SDS011;15333;50.010;20.020;2023-04-06T06:26:24;34.38;;;16.45;;
28007;SDS011;15333;50.010;20.020;2023-04-06T06:29:25;33.00;;;15.30;;
28007;SDS011;15333;50.010;20.020;2023-04-06T06:32:26;31.35;;;14.43;;
28007;SDS011;15333;50.010;20.020;2023-04-06T06:35:28;28.45;;;14.43;;
28007;SDS011;15333;50.010;20.020;2023-04-06T06:38:29;25.13;;;13.20;;
28007;SDS011;15333;50.010;20.020;2023-04-06T06:41:30;28.67;;;13.75;;
28007;SDS011;15333;50.010;20.020;2023-04-06T06:44:32;31.20;;;14.20;;
28007;SDS011;15333;50.010;20.020;2023-04-06T06:47:33;26.42;;;13.85;;
28007;SDS011;15333;50.010;20.020;2023-04-06T06:50:34;32.85;;;13.98;;
28007;SDS011;15333;50.010;20.020;2023-04-06T06:53:35;30.58;;;14.80;;
28007;SDS011;15333;50.010;20.020;2023-04-06T06:56:35;34.53;;;15.10;;
28007;SDS011;15333;50.010;20.020;2023-04-06T06:59:38;31.83;;;14.73;;
28007;SDS011;15333;50.010;20.020;2023-04-06T07:02:39;30.10;;;14.48;;
28007;SDS011;15333;50.010;20.020;2023-04-06T07:05:46;29.17;;;15.20;;
28007;SDS011;15333;50.010;20.020;2023-04-06T07:08:53;28.92;;;12.18;;
28007;SDS011;15333;50.010;20.020;2023-04-06T07:11:54;32.97;;;13.85;;
28007;SDS011;15333;50.010;20.020;2023-04-06T07:14:56;28.02;;;12.23;;
28007;SDS011;15333;50.010;20.020;2023-04-06T07:17:57;20.58;;;11.90;;
28007;SDS011;15333;50.010;20.020;2023-04-06T07:21:00;28.98;;;11.63;;
28007;SDS011;15333;50.010;20.020;2023-04-06T07:24:01;21.50;;;11.57;;
28007;SDS011;15333;50.010;20.020;2023-04-06T07:27:02;21.15;;;10.88;;
28007;SDS011;15333;50.010;20.020;2023-04-06T07:30:03;22.90;;;10.73;;
28007;SDS011;15333;50.010;20.020;2023-04-06T07:33:05;24.85;;;11.82;;
28007;SDS011;15333;50.010;20.020;2023-04-06T07:36:07;27.27;;;11.07;;
28007;SDS011;15333;50.010;20.020;2023-04-06T07:39:08;23.52;;;10.68;;
28007;SDS011;15333;50.010;20.020;2023-04-06T07:42:14;29.05;;;10.40;;
28007;SDS011;15333;50.010;20.020;2023-04-06T07:45:15;21.55;;;10.77;;
28007;SDS011;15333;50.010;20.020;2023-04-06T07:48:17;18.63;;;10.52;;
28007;SDS011;15333;50.010;20.020;2023-04-06T07:51:18;17.63;;;10.75;;
28007;SDS011;15333;50.010;20.020;2023-04-06T07:54:21;23.58;;;10.38;;
28007;SDS011;15333;50.010;20.020;2023-04-06T07:57:22;21.63;;;10.23;;
28007;SDS011;15333;50.010;20.020;2023-04-06T08:00:23;23.00;;;11.35;;
28007;SDS011;15333;50.010;20.020;2023-04-06T08:03:24;23.25;;;11.15;;
28007;SDS011;15333;50.010;20.020;2023-04-06T08:06:26;18.45;;;10.50;;
28007;SDS011;15333;50.010;20.020;2023-04-06T08:09:26;20.90;;;10.80;;
28007;SDS011;15333;50.010;20.020;2023-04-06T08:12:28;21.33;;;10.38;;
28007;SDS011;15333;50.010;20.020;2023-04-06T08:15:28;18.00;;;9.88;;
28007;SDS011;15333;50.010;20.020;2023-04-06T08:18:30;20.25;;;10.25;;
28007;SDS011;15333;50.010;20.020;2023-04-06T08:21:30;22.98;;;11.77;;
28007;SDS011;15333;50.010;20.020;2023-04-06T08:24:31;18.85;;;11.25;;
28007;SDS011;15333;50.010;20.020;2023-04-06T08:27:32;15.60;;;10.75;;
28007;SDS011;15333;50.010;20.020;2023-04-06T08:30:33;19.17;;;10.23;;
28007;SDS011;15333;50.010;20.020;2023-04-06T08:33:34;19.50;;;11.05;;
28007;SDS011;15333;50.010;20.020;2023-04-06T08:36:37;14.90;;;9.25;;
28007;SDS011;15333;50.010;20.020;2023-04-06T08:39:37;18.60;;;10.30;;
28007;SDS011;15333;50.010;20.020;2023-04-06T08:42:44;16.42;;;9.70;;
28007;SDS011;15333;50.010;20.020;2023-04-06T08:45:47;15.27;;;9.85;;
28007;SDS011;15333;50.010;20.020;2023-04-06T08:48:48;13.73;;;9.23;;
28007;SDS011;15333;50.010;20.020;2023-04-06T08:51:50;17.42;;;10.38;;
28007;SDS011;15333;50.010;20.020;2023-04-06T08:54:51;18.33;;;9.40;;
28007;SDS011;15333;50.010;20.020;2023-04-06T08:57:53;16.25;;;9.43;;
28007;SDS011;15333;50.010;20.020;2023-04-06T09:00:55;17.38;;;9.40;;
28007;SDS011;15333;50.010;20.020;2023-04-06T09:03:58;13.82;;;9.35;;
28007;SDS011;15333;50.010;20.020;2023-04-06T09:07:01;15.98;;;9.02;;
28007;SDS011;15333;50.010;20.020;2023-04-06T09:10:02;19.30;;;9.55;;
28007;SDS011;15333;50.010;20.020;2023-04-06T09:13:04;17.40;;;9.77;;
28007;SDS011;15333;50.010;20.020;2023-04-06T09:16:06;19.13;;;10.02;;
28007;SDS011;15333;50.010;20.020;2023-04-06T09:19:07;17.20;;;9.35;;
28007;SDS011;15333;50.010;20.020;2023-04-06T09:22:08;15.43;;;9.20;;
28007;SDS011;15333;50.010;20.020;2023-04-06T09:25:17;19.08;;;9.50;;
28007;SDS011;15333;50.010;20.020;2023-04-06T09:31:25;13.63;;;8.70;;
28007;SDS011;15333;50.010;20.020;2023-04-06T09:34:27;21.10;;;8.90;;
28007;SDS011;15333;50.010;20.020;2023-04-06T09:37:28;15.63;;;8.50;;
28007;SDS011;15333;50.010;20.020;2023-04-06T09:40:29;18.58;;;9.32;;
28007;SDS011;15333;50.010;20.020;2023-04-06T09:43:30;16.27;;;9.20;;
28007;SDS011;15333;50.010;20.020;2023-04-06T09:46:31;17.98;;;10.23;;
28007;SDS011;15333;50.010;20.020;2023-04-06T09:49:35;20.50;;;9.80;;
28007;SDS011;15333;50.010;20.020;2023-04-06T09:52:48;19.25;;;10.20;;
28007;SDS011;15333;50.010;20.020;2023-04-06T09:55:51;17.23;;;9.88;;
28007;SDS011;15333;50.010;20.020;2023-04-06T09:59:02;20.40;;;10.63;;
28007;SDS011;15333;50.010;20.020;2023-04-06T10:02:05;18.65;;;10.02;;
28007;SDS011;15333;50.010;20.020;2023-04-06T10:05:18;20.00;;;10.43;;
28007;SDS011;15333;50.010;20.020;2023-04-06T10:08:24;19.52;;;10.30;;
28007;SDS011;15333;50.010;20.020;2023-04-06T10:11:28;19.33;;;9.25;;
28007;SDS011;15333;50.010;20.020;2023-04-06T10:14:31;21.17;;;10.27;;
28007;SDS011;15333;50.010;20.020;2023-04-06T10:17:37;18.88;;;10.25;;
28007;SDS011;15333;50.010;20.020;2023-04-06T10:20:40;17.58;;;10.57;;
28007;SDS011;15333;50.010;20.020;2023-04-06T10:27:00;20.85;;;11.98;;
28007;SDS011;15333;50.010;20.020;2023-04-06T10:30:05;22.75;;;13.18;;
28007;SDS011;15333;50.010;20.020;2023-04-06T10:33:14;25.77;;;13.93;;
28007;SDS011;15333;50.010;20.020;2023-04-06T10:36:31;22.42;;;13.88;;
28007;SDS011;15333;50.010;20.020;2023-04-06T10:39:34;25.27;;;13.95;;
28007;SDS011;15333;50.010;20.020;2023-04-06T10:42:46;29.58;;;14.55;;
28007;SDS011;15333;50.010;20.020;2023-04-06T10:45:57;25.55;;;15.05;;
28007;SDS011;15333;50.010;20.020;2023-04-06T10:49:09;23.88;;;14.10;;
28007;SDS011;15333;50.010;20.020;2023-04-06T10:52:12;25.90;;;14.45;;
28007;SDS011;15333;50.010;20.020;2023-04-06T10:55:13;25.17;;;14.43;;
28007;SDS011;15333;50.010;20.020;2023-04-06T10:58:16;26.63;;;13.80;;
28007;SDS011;15333;50.010;20.020;2023-04-06T11:01:21;26.90;;;14.63;;
28007;SDS011;15333;50.010;20.020;2023-04-06T11:04:24;24.85;;;14.20;;
28007;SDS011;15333;50.010;20.020;2023-04-06T11:07:26;23.02;;;13.45;;
28007;SDS011;15333;50.010;20.020;2023-04-06T11:10:27;28.13;;;14.88;;
28007;SDS011;15333;50.010;20.020;2023-04-06T11:14:03;26.05;;;13.63;;
28007;SDS011;15333;50.010;20.020;2023-04-06T11:16:58;29.40;;;15.85;;
28007;SDS011;15333;50.010;20.020;2023-04-06T11:19:59;25.02;;;14.68;;
28007;SDS011;15333;50.010;20.020;2023-04-06T11:23:00;24.52;;;14.55;;
28007;SDS011;15333;50.010;20.020;2023-04-06T11:26:02;28.15;;;15.20;;
28007;SDS011;15333;50.010;20.020;2023-04-06T11:29:03;34.03;;;15.38;;
28007;SDS011;15333;50.010;20.020;2023-04-06T11:32:05;25.02;;;14.45;;
28007;SDS011;15333;50.010;20.020;2023-04-06T11:35:20;31.60;;;14.90;;
28007;SDS011;15333;50.010;20.020;2023-04-06T11:38:22;20.75;;;11.90;;
28007;SDS011;15333;50.010;20.020;2023-04-06T11:41:23;26.95;;;15.55;;
28007;SDS011;15333;50.010;20.020;2023-04-06T11:44:28;25.95;;;14.73;;
28007;SDS011;15333;50.010;20.020;2023-04-06T11:47:33;25.15;;;14.90;;
28007;SDS011;15333;50.010;20.020;2023-04-06T11:50:35;28.02;;;15.90;;
28007;SDS011;15333;50.010;20.020;2023-04-06T11:53:43;32.13;;;15.60;;
28007;SDS011;15333;50.010;20.020;2023-04-06T11:59:47;28.33;;;16.38;;
28007;SDS011;15333;50.010;20.020;2023-04-06T12:02:48;27.67;;;15.88;;
28007;SDS011;15333;50.010;20.020;2023-04-06T12:05:50;30.33;;;18.15;;
28007;SDS011;15333;50.010;20.020;2023-04-06T12:08:51;36.33;;;19.30;;
28007;SDS011;15333;50.010;20.020;2023-04-06T12:11:52;30.23;;;18.30;;
28007;SDS011;15333;50.010;20.020;2023-04-06T12:14:53;33.53;;;16.88;;
28007;SDS011;15333;50.010;20.020;2023-04-06T12:17:53;31.40;;;17.90;;
28007;SDS011;15333;50.010;20.020;2023-04-06T12:20:54;34.72;;;18.77;;
28007;SDS011;15333;50.010;20.020;2023-04-06T12:23:55;38.88;;;18.88;;
28007;SDS011;15333;50.010;20.020;2023-04-06T12:26:57;33.85;;;17.58;;
28007;SDS011;15333;50.010;20.020;2023-04-06T12:29:58;31.80;;;18.88;;
28007;SDS011;15333;50.010;20.020;2023-04-06T12:32:59;35.28;;;18.73;;
28007;SDS011;15333;50.010;20.020;2023-04-06T12:36:00;31.25;;;17.73;;
28007;SDS011;15333;50.010;20.020;2023-04-06T12:39:01;35.13;;;19.10;;
28007;SDS011;15333;50.010;20.020;2023-04-06T12:42:02;32.80;;;18.52;;
28007;SDS011;15333;50.010;20.020;2023-04-06T12:45:04;33.03;;;19.15;;
28007;SDS011;15333;50.010;20.020;2023-04-06T12:48:05;32.72;;;19.27;;
28007;SDS011;15333;50.010;20.020;2023-04-06T12:51:06;33.75;;;18.70;;
28007;SDS011;15333;50.010;20.020;2023-04-06T12:54:07;35.03;;;19.83;;
28007;SDS011;15333;50.010;20.020;2023-04-06T12:57:08;32.05;;;18.00;;
28007;SDS011;15333;50.010;20.020;2023-04-06T13:00:09;31.77;;;19.65;;
28007;SDS011;15333;50.010;20.020;2023-04-06T13:03:10;37.22;;;19.23;;
28007;SDS011;15333;50.010;20.020;2023-04-06T13:06:11;34.05;;;19.95;;
28007;SDS011;15333;50.010;20.020;2023-04-06T13:09:13;34.90;;;20.52;;
28007;SDS011;15333;50.010;20.020;2023-04-06T13:12:15;38.00;;;19.45;;
28007;SDS011;15333;50.010;20.020;2023-04-06T13:15:16;37.75;;;20.55;;
28007;SDS011;15333;50.010;20.020;2023-04-06T13:18:17;34.80;;;19.35;;
28007;SDS011;15333;50.010;20.020;2023-04-06T13:21:18;36.40;;;20.98;;
28007;SDS011;15333;50.010;20.020;2023-04-06T13:24:20;41.33;;;21.70;;
28007;SDS011;15333;50.010;20.020;2023-04-06T13:27:22;50.42;;;23.75;;
28007;SDS011;15333;50.010;20.020;2023-04-06T13:30:23;38.55;;;20.58;;
28007;SDS011;15333;50.010;20.020;2023-04-06T13:33:24;37.97;;;22.35;;
28007;SDS011;15333;50.010;20.020;2023-04-06T13:36:25;43.67;;;21.77;;
28007;SDS011;15333;50.010;20.020;2023-04-06T13:39:27;40.70;;;22.45;;
28007;SDS011;15333;50.010;20.020;2023-04-06T13:42:27;42.03;;;20.35;;
28007;SDS011;15333;50.010;20.020;2023-04-06T13:45:29;40.60;;;24.52;;
28007;SDS011;15333;50.010;20.020;2023-04-06T13:48:30;45.30;;;24.05;;
28007;SDS011;15333;50.010;20.020;2023-04-06T13:51:31;39.72;;;22.85;;
28007;SDS011;15333;50.010;20.020;2023-04-06T13:54:32;40.90;;;23.17;;
28007;SDS011;15333;50.010;20.020;2023-04-06T13:57:33;42.35;;;22.52;;
28007;SDS011;15333;50.010;20.020;2023-04-06T14:00:34;45.60;;;23.38;;
28007;SDS011;15333;50.010;20.020;2023-04-06T14:03:35;44.60;;;24.15;;
28007;SDS011;15333;50.010;20.020;2023-04-06T14:06:37;45.17;;;23.85;;
28007;SDS011;15333;50.010;20.020;2023-04-06T14:09:38;48.20;;;25.15;;
28007;SDS011;15333;50.010;20.020;2023-04-06T14:12:39;44.17;;;22.65;;
28007;SDS011;15333;50.010;20.020;2023-04-06T14:15:45;44.22;;;24.50;;
28007;SDS011;15333;50.010;20.020;2023-04-06T14:18:46;49.97;;;26.58;;
28007;SDS011;15333;50.010;20.020;2023-04-06T14:21:47;47.05;;;24.30;;
28007;SDS011;15333;50.010;20.020;2023-04-06T14:24:49;44.15;;;25.13;;
28007;SDS011;15333;50.010;20.020;2023-04-06T14:27:50;50.70;;;25.10;;
28007;SDS011;15333;50.010;20.020;2023-04-06T14:30:50;50.85;;;25.45;;
28007;SDS011;15333;50.010;20.020;2023-04-06T14:33:52;46.08;;;26.67;;
28007;SDS011;15333;50.010;20.020;2023-04-06T14:36:53;49.75;;;26.25;;
28007;SDS011;15333;50.010;20.020;2023-04-06T14:39:54;46.78;;;26.52;;
28007;SDS011;15333;50.010;20.020;2023-04-06T14:42:55;52.15;;;28.40;;
28007;SDS011;15333;50.010;20.020;2023-04-06T14:46:00;50.90;;;27.63;;
28007;SDS011;15333;50.010;20.020;2023-04-06T14:49:01;55.33;;;29.77;;
28007;SDS011;15333;50.010;20.020;2023-04-06T14:52:04;52.83;;;29.60;;
28007;SDS011;15333;50.010;20.020;2023-04-06T14:55:05;56.05;;;29.58;;
28007;SDS011;15333;50.010;20.020;2023-04-06T14:58:06;51.88;;;28.10;;
28007;SDS011;15333;50.010;20.020;2023-04-06T15:01:07;57.80;;;29.75;;
28007;SDS011;15333;50.010;20.020;2023-04-06T15:04:08;54.28;;;30.38;;
28007;SDS011;15333;50.010;20.020;2023-04-06T15:07:09;53.10;;;29.58;;
28007;SDS011;15333;50.010;20.020;2023-04-06T15:10:11;53.58;;;31.40;;
28007;SDS011;15333;50.010;20.020;2023-04-06T15:13:12;53.25;;;28.17;;
28007;SDS011;15333;50.010;20.020;2023-04-06T15:16:13;52.25;;;28.67;;
28007;SDS011;15333;50.010;20.020;2023-04-06T15:19:14;55.25;;;29.95;;
28007;SDS011;15333;50.010;20.020;2023-04-06T15:22:15;51.13;;;28.08;;
28007;SDS011;15333;50.010;20.020;2023-04-06T15:25:16;57.55;;;30.65;;
28007;SDS011;15333;50.010;20.020;2023-04-06T15:28:17;51.53;;;31.83;;
28007;SDS011;15333;50.010;20.020;2023-04-06T15:31:18;62.17;;;31.00;;
28007;SDS011;15333;50.010;20.020;2023-04-06T15:34:23;53.17;;;29.88;;
28007;SDS011;15333;50.010;20.020;2023-04-06T15:37:23;59.03;;;31.92;;
28007;SDS011;15333;50.010;20.020;2023-04-06T15:40:24;59.45;;;32.15;;
28007;SDS011;15333;50.010;20.020;2023-04-06T15:43:25;62.05;;;33.85;;
28007;SDS011;15333;50.010;20.020;2023-04-06T15:46:26;59.42;;;32.22;;
28007;SDS011;15333;50.010;20.020;2023-04-06T15:49:27;64.25;;;36.15;;
28007;SDS011;15333;50.010;20.020;2023-04-06T15:52:28;63.70;;;35.15;;
28007;SDS011;15333;50.010;20.020;2023-04-06T15:55:29;58.38;;;30.98;;
28007;SDS011;15333;50.010;20.020;2023-04-06T15:58:31;56.13;;;31.15;;
28007;SDS011;15333;50.010;20.020;2023-04-06T16:01:33;58.60;;;31.27;;
28007;SDS011;15333;50.010;20.020;2023-04-06T16:04:34;63.80;;;34.40;;
28007;SDS011;15333;50.010;20.020;2023-04-06T16:07:35;66.70;;;34.78;;
28007;SDS011;15333;50.010;20.020;2023-04-06T16:10:36;68.90;;;36.83;;
28007;SDS011;15333;50.010;20.020;2023-04-06T16:13:36;70.13;;;38.40;;
28007;SDS011;15333;50.010;20.020;2023-04-06T16:16:37;73.97;;;40.20;;
28007;SDS011;15333;50.010;20.020;2023-04-06T16:19:39;86.10;;;40.70;;
28007;SDS011;15333;50.010;20.020;2023-04-06T16:22:40;84.35;;;42.15;;
28007;SDS011;15333;50.010;20.020;2023-04-06T16:25:41;89.45;;;39.72;;
28007;SDS011;15333;50.010;20.020;2023-04-06T16:28:43;102.55;;;41.53;;
28007;SDS011;15333;50.010;20.020;2023-04-06T16:31:44;103.05;;;44.40;;
28007;SDS011;15333;50.010;20.020;2023-04-06T16:34:46;117.25;;;45.55;;
28007;SDS011;15333;50.010;20.020;2023-04-06T16:37:48;107.53;;;45.03;;
28007;SDS011;15333;50.010;20.020;2023-04-06T16:40:58;111.57;;;46.17;;
28007;SDS011;15333;50.010;20.020;2023-04-06T16:43:59;111.03;;;43.20;;
28007;SDS011;15333;50.010;20.020;2023-04-06T16:47:00;110.75;;;47.67;;
28007;SDS011;15333;50.010;20.020;2023-04-06T16:50:01;101.43;;;43.60;;
28007;SDS011;15333;50.010;20.020;2023-04-06T16:53:03;110.72;;;49.97;;
28007;SDS011;15333;50.010;20.020;2023-04-06T16:56:06;114.35;;;48.38;;
28007;SDS011;15333;50.010;20.020;2023-04-06T16:59:09;116.97;;;51.78;;
28007;SDS011;15333;50.010;20.020;2023-04-06T17:02:10;105.22;;;47.70;;
28007;SDS011;15333;50.010;20.020;2023-04-06T17:05:11;109.45;;;48.13;;
28007;SDS011;15333;50.010;20.020;2023-04-06T17:08:12;113.65;;;51.65;;
28007;SDS011;15333;50.010;20.020;2023-04-06T17:11:13;123.25;;;54.08;;
28007;SDS011;15333;50.010;20.020;2023-04-06T17:14:15;115.20;;;52.08;;
28007;SDS011;15333;50.010;20.020;2023-04-06T17:17:16;113.50;;;52.85;;
28007;SDS011;15333;50.010;20.020;2023-04-06T17:20:17;116.32;;;52.75;;
28007;SDS011;15333;50.010;20.020;2023-04-06T17:23:18;114.38;;;54.00;;
28007;SDS011;15333;50.010;20.020;2023-04-06T17:26:20;112.60;;;51.60;;
28007;SDS011;15333;50.010;20.020;2023-04-06T17:29:21;117.82;;;55.10;;
28007;SDS011;15333;50.010;20.020;2023-04-06T17:32:22;104.80;;;44.38;;
28007;SDS011;15333;50.010;20.020;2023-04-06T17:35:23;106.47;;;46.72;;
28007;SDS011;15333;50.010;20.020;2023-04-06T17:38:24;103.20;;;49.15;;
28007;SDS011;15333;50.010;20.020;2023-04-06T17:41:25;114.40;;;53.28;;